Statia Express — V7TT3 — position and weather

sailwx.info

Track history (hours):
 
Tides and Currents Weather Stations Pressure Air Temp Water Temp Dewpoint Dewpoint Depression Visibility Wind Speed Wind Dir Waves Ship Positions

Statia Express

Last reported at 2017-Jun-24 02:58 UTC. Time now 2017-Jun-24 03:24 UTC.
Position N 17°58' W 063°05'.

Length 28 m; draft 4.1 m.

Type: Tug. MMSI: 538003879.

Date/timePositionNaut miles runAvg speedWind from/ knotsBaromVisibWave heightAir tempDewpointWater temp
2017-Jun-24 02:58N 17°58' W 063°05'2 4.8
2017-Jun-24 02:28N 17°56' W 063°05'3 6.0
2017-Jun-24 01:59N 17°53' W 063°05'3 6.2
2017-Jun-24 01:27N 17°50' W 063°04'  
2017-Jun-18 01:25N 17°48' W 063°02'2 5.4
2017-Jun-18 01:00N 17°50' W 063°03'3 5.5
2017-Jun-18 00:30N 17°53' W 063°03'3 5.5
2017-Jun-18 00:00N 17°55' W 063°04'3 5.6
2017-Jun-17 23:30N 17°58' W 063°05'2 4.5
2017-Jun-17 23:00N 18°00' W 063°05'1 1.9
2017-Jun-17 22:21N 18°01' W 063°05'0 0.0
2017-Jun-17 21:55N 18°01' W 063°05'0 0.0
2017-Jun-17 21:27N 18°01' W 063°05'0 0.0
2017-Jun-17 20:58N 18°01' W 063°05'0 0.0
2017-Jun-17 20:27N 18°01' W 063°05'0 0.0
2017-Jun-17 19:54N 18°01' W 063°05'0 0.0
2017-Jun-17 19:27N 18°01' W 063°05'0 0.0
2017-Jun-17 19:00N 18°01' W 063°05'0 0.0
2017-Jun-17 18:30N 18°01' W 063°05'0 0.0
2017-Jun-17 18:00N 18°01' W 063°05'0 0.0
2017-Jun-17 17:30N 18°01' W 063°05'0 0.0
2017-Jun-17 17:00N 18°01' W 063°05'0 0.0
2017-Jun-17 16:30N 18°01' W 063°05'0 0.0
2017-Jun-17 16:00N 18°01' W 063°05'0 0.0
2017-Jun-17 15:30N 18°01' W 063°05'0 0.0
2017-Jun-17 14:58N 18°01' W 063°05'0 0.0
2017-Jun-17 14:31N 18°01' W 063°05'0 0.0
2017-Jun-17 13:30N 18°01' W 063°05'0 0.0
2017-Jun-17 13:00N 18°01' W 063°05'0 0.0
2017-Jun-17 12:30N 18°01' W 063°05'0 0.0
2017-Jun-17 11:48N 18°01' W 063°05'0 0.0
2017-Jun-17 11:18N 18°01' W 063°05'0 0.1
2017-Jun-17 10:51N 18°01' W 063°05'1 2.0
2017-Jun-17 10:30N 18°01' W 063°05'1 0.6
2017-Jun-17 08:33N 18°01' W 063°03'0 0.0
2017-Jun-17 08:30N 18°01' W 063°03'0 0.0
2017-Jun-17 08:00N 18°01' W 063°03'0 0.0
2017-Jun-17 07:30N 18°01' W 063°03'0 0.0
2017-Jun-17 02:53N 18°01' W 063°03'0 0.0
2017-Jun-16 21:34N 18°01' W 063°03'0 0.0
2017-Jun-16 09:49N 18°01' W 063°03'0 1.2
2017-Jun-16 09:26N 18°00' W 063°04'1 3.3
2017-Jun-16 08:59N 17°59' W 063°04'2 3.6
2017-Jun-16 08:29N 17°57' W 063°04'3 5.7
2017-Jun-16 08:00N 17°54' W 063°04'3 5.8
2017-Jun-16 07:30N 17°52' W 063°03'3 5.9
2017-Jun-16 07:00N 17°49' W 063°03'  
Track history (hours):
 
Tides and Currents Weather Stations Pressure Air Temp Water Temp Dewpoint Dewpoint Depression Visibility Wind Speed Wind Dir Waves Ship Positions

Statia Express

Last reported at 2017-Jun-24 02:58 UTC. Time now 2017-Jun-24 03:24 UTC.
Position N 17°58' W 063°05'.

Length 28 m; draft 4.1 m.

Type: Tug. MMSI: 538003879.

Date/timePositionNaut miles runAvg speedWind from/ knotsBaromVisibWave heightAir tempDewpointWater temp
2017-Jun-24 02:58N 17°58' W 063°05'2 4.8
2017-Jun-24 02:28N 17°56' W 063°05'3 6.0
2017-Jun-24 01:59N 17°53' W 063°05'3 6.2
2017-Jun-24 01:27N 17°50' W 063°04'  
2017-Jun-18 01:25N 17°48' W 063°02'2 5.4
2017-Jun-18 01:00N 17°50' W 063°03'3 5.5
2017-Jun-18 00:30N 17°53' W 063°03'3 5.5
2017-Jun-18 00:00N 17°55' W 063°04'3 5.6
2017-Jun-17 23:30N 17°58' W 063°05'2 4.5
2017-Jun-17 23:00N 18°00' W 063°05'1 1.9
2017-Jun-17 22:21N 18°01' W 063°05'0 0.0
2017-Jun-17 21:55N 18°01' W 063°05'0 0.0
2017-Jun-17 21:27N 18°01' W 063°05'0 0.0
2017-Jun-17 20:58N 18°01' W 063°05'0 0.0
2017-Jun-17 20:27N 18°01' W 063°05'0 0.0
2017-Jun-17 19:54N 18°01' W 063°05'0 0.0
2017-Jun-17 19:27N 18°01' W 063°05'0 0.0
2017-Jun-17 19:00N 18°01' W 063°05'0 0.0
2017-Jun-17 18:30N 18°01' W 063°05'0 0.0
2017-Jun-17 18:00N 18°01' W 063°05'0 0.0
2017-Jun-17 17:30N 18°01' W 063°05'0 0.0
2017-Jun-17 17:00N 18°01' W 063°05'0 0.0
2017-Jun-17 16:30N 18°01' W 063°05'0 0.0
2017-Jun-17 16:00N 18°01' W 063°05'0 0.0
2017-Jun-17 15:30N 18°01' W 063°05'0 0.0
2017-Jun-17 14:58N 18°01' W 063°05'0 0.0
2017-Jun-17 14:31N 18°01' W 063°05'0 0.0
2017-Jun-17 13:30N 18°01' W 063°05'0 0.0
2017-Jun-17 13:00N 18°01' W 063°05'0 0.0
2017-Jun-17 12:30N 18°01' W 063°05'0 0.0
2017-Jun-17 11:48N 18°01' W 063°05'0 0.0
2017-Jun-17 11:18N 18°01' W 063°05'0 0.1
2017-Jun-17 10:51N 18°01' W 063°05'1 2.0
2017-Jun-17 10:30N 18°01' W 063°05'1 0.6
2017-Jun-17 08:33N 18°01' W 063°03'0 0.0
2017-Jun-17 08:30N 18°01' W 063°03'0 0.0
2017-Jun-17 08:00N 18°01' W 063°03'0 0.0
2017-Jun-17 07:30N 18°01' W 063°03'0 0.0
2017-Jun-17 02:53N 18°01' W 063°03'0 0.0
2017-Jun-16 21:34N 18°01' W 063°03'0 0.0
2017-Jun-16 09:49N 18°01' W 063°03'0 1.2
2017-Jun-16 09:26N 18°00' W 063°04'1 3.3
2017-Jun-16 08:59N 17°59' W 063°04'2 3.6
2017-Jun-16 08:29N 17°57' W 063°04'3 5.7
2017-Jun-16 08:00N 17°54' W 063°04'3 5.8
2017-Jun-16 07:30N 17°52' W 063°03'3 5.9
2017-Jun-16 07:00N 17°49' W 063°03'  

Dump ship's entire track history